sensor_id;sensor_type;location;lat;lon;timestamp;P1;durP1;ratioP1;P2;durP2;ratioP2
72801;SDS011;61891;55.818;37.084;2023-07-31T00:02:40;9.18;;;4.82;;
72801;SDS011;61891;55.818;37.084;2023-07-31T00:05:08;9.02;;;4.43;;
72801;SDS011;61891;55.818;37.084;2023-07-31T00:07:34;8.02;;;4.40;;
72801;SDS011;61891;55.818;37.084;2023-07-31T00:10:00;9.32;;;5.10;;
72801;SDS011;61891;55.818;37.084;2023-07-31T00:12:26;10.60;;;5.30;;
72801;SDS011;61891;55.818;37.084;2023-07-31T00:14:51;12.77;;;5.05;;
72801;SDS011;61891;55.818;37.084;2023-07-31T00:17:17;8.95;;;5.53;;
72801;SDS011;61891;55.818;37.084;2023-07-31T00:19:43;9.27;;;5.18;;
72801;SDS011;61891;55.818;37.084;2023-07-31T00:22:11;10.65;;;5.38;;
72801;SDS011;61891;55.818;37.084;2023-07-31T00:27:03;8.02;;;5.20;;
72801;SDS011;61891;55.818;37.084;2023-07-31T00:29:29;10.10;;;5.88;;
72801;SDS011;61891;55.818;37.084;2023-07-31T00:31:56;8.07;;;5.28;;
72801;SDS011;61891;55.818;37.084;2023-07-31T00:34:22;10.20;;;5.43;;
72801;SDS011;61891;55.818;37.084;2023-07-31T00:36:48;8.77;;;5.40;;
72801;SDS011;61891;55.818;37.084;2023-07-31T00:39:16;9.57;;;5.55;;
72801;SDS011;61891;55.818;37.084;2023-07-31T00:41:46;8.68;;;5.90;;
72801;SDS011;61891;55.818;37.084;2023-07-31T00:44:12;9.23;;;5.47;;
72801;SDS011;61891;55.818;37.084;2023-07-31T00:46:38;7.40;;;5.45;;
72801;SDS011;61891;55.818;37.084;2023-07-31T00:49:04;8.45;;;5.45;;
72801;SDS011;61891;55.818;37.084;2023-07-31T00:51:31;11.15;;;5.20;;
72801;SDS011;61891;55.818;37.084;2023-07-31T00:53:57;10.52;;;5.90;;
72801;SDS011;61891;55.818;37.084;2023-07-31T00:56:23;10.68;;;5.13;;
72801;SDS011;61891;55.818;37.084;2023-07-31T00:58:50;9.85;;;5.13;;
72801;SDS011;61891;55.818;37.084;2023-07-31T01:01:16;8.57;;;5.18;;
72801;SDS011;61891;55.818;37.084;2023-07-31T01:03:42;10.27;;;5.35;;
72801;SDS011;61891;55.818;37.084;2023-07-31T01:06:14;12.98;;;5.00;;
72801;SDS011;61891;55.818;37.084;2023-07-31T01:11:29;12.10;;;5.03;;
72801;SDS011;61891;55.818;37.084;2023-07-31T01:13:57;10.05;;;4.60;;
72801;SDS011;61891;55.818;37.084;2023-07-31T01:16:25;11.55;;;5.13;;
72801;SDS011;61891;55.818;37.084;2023-07-31T01:18:51;16.77;;;5.25;;
72801;SDS011;61891;55.818;37.084;2023-07-31T01:24:12;11.40;;;5.30;;
72801;SDS011;61891;55.818;37.084;2023-07-31T01:27:10;9.52;;;5.20;;
72801;SDS011;61891;55.818;37.084;2023-07-31T01:29:44;8.80;;;4.70;;
72801;SDS011;61891;55.818;37.084;2023-07-31T01:32:18;7.80;;;4.95;;
72801;SDS011;61891;55.818;37.084;2023-07-31T01:37:13;6.65;;;4.60;;
72801;SDS011;61891;55.818;37.084;2023-07-31T01:39:40;7.28;;;4.30;;
72801;SDS011;61891;55.818;37.084;2023-07-31T01:42:05;7.93;;;4.60;;
72801;SDS011;61891;55.818;37.084;2023-07-31T01:44:33;9.10;;;5.25;;
72801;SDS011;61891;55.818;37.084;2023-07-31T01:46:59;7.00;;;4.95;;
72801;SDS011;61891;55.818;37.084;2023-07-31T01:49:26;7.38;;;4.72;;
72801;SDS011;61891;55.818;37.084;2023-07-31T01:51:52;6.38;;;5.10;;
72801;SDS011;61891;55.818;37.084;2023-07-31T01:54:18;6.88;;;4.82;;
72801;SDS011;61891;55.818;37.084;2023-07-31T01:56:44;8.93;;;4.88;;
72801;SDS011;61891;55.818;37.084;2023-07-31T01:59:10;7.07;;;4.63;;
72801;SDS011;61891;55.818;37.084;2023-07-31T02:01:35;10.00;;;5.05;;
72801;SDS011;61891;55.818;37.084;2023-07-31T02:04:01;6.80;;;4.95;;
72801;SDS011;61891;55.818;37.084;2023-07-31T02:06:27;7.78;;;4.85;;
72801;SDS011;61891;55.818;37.084;2023-07-31T02:08:54;7.57;;;4.65;;
72801;SDS011;61891;55.818;37.084;2023-07-31T02:11:20;10.15;;;5.07;;
72801;SDS011;61891;55.818;37.084;2023-07-31T02:13:49;9.25;;;4.93;;
72801;SDS011;61891;55.818;37.084;2023-07-31T02:16:14;6.60;;;4.85;;
72801;SDS011;61891;55.818;37.084;2023-07-31T02:18:41;6.65;;;4.57;;
72801;SDS011;61891;55.818;37.084;2023-07-31T02:21:06;9.35;;;4.78;;
72801;SDS011;61891;55.818;37.084;2023-07-31T02:23:32;9.00;;;4.82;;
72801;SDS011;61891;55.818;37.084;2023-07-31T02:25:58;8.10;;;4.63;;
72801;SDS011;61891;55.818;37.084;2023-07-31T02:30:50;8.30;;;5.20;;
72801;SDS011;61891;55.818;37.084;2023-07-31T02:33:17;9.98;;;4.50;;
72801;SDS011;61891;55.818;37.084;2023-07-31T02:35:43;12.13;;;4.93;;
72801;SDS011;61891;55.818;37.084;2023-07-31T02:38:09;10.63;;;5.13;;
72801;SDS011;61891;55.818;37.084;2023-07-31T02:40:35;9.10;;;4.78;;
72801;SDS011;61891;55.818;37.084;2023-07-31T02:43:00;9.05;;;4.72;;
72801;SDS011;61891;55.818;37.084;2023-07-31T02:45:26;12.15;;;4.95;;
72801;SDS011;61891;55.818;37.084;2023-07-31T02:47:52;9.48;;;5.10;;
72801;SDS011;61891;55.818;37.084;2023-07-31T02:50:18;16.08;;;5.57;;
72801;SDS011;61891;55.818;37.084;2023-07-31T02:52:43;7.55;;;4.35;;
72801;SDS011;61891;55.818;37.084;2023-07-31T02:55:09;8.90;;;4.57;;
72801;SDS011;61891;55.818;37.084;2023-07-31T02:57:35;6.97;;;4.03;;
72801;SDS011;61891;55.818;37.084;2023-07-31T03:00:01;7.78;;;4.28;;
72801;SDS011;61891;55.818;37.084;2023-07-31T03:02:33;6.70;;;4.35;;
72801;SDS011;61891;55.818;37.084;2023-07-31T03:04:59;10.07;;;5.28;;
72801;SDS011;61891;55.818;37.084;2023-07-31T03:07:29;8.23;;;4.57;;
72801;SDS011;61891;55.818;37.084;2023-07-31T03:09:55;9.55;;;4.53;;
72801;SDS011;61891;55.818;37.084;2023-07-31T03:14:47;7.97;;;4.53;;
72801;SDS011;61891;55.818;37.084;2023-07-31T03:17:13;6.68;;;4.68;;
72801;SDS011;61891;55.818;37.084;2023-07-31T03:19:40;9.43;;;4.72;;
72801;SDS011;61891;55.818;37.084;2023-07-31T03:22:06;7.28;;;5.13;;
72801;SDS011;61891;55.818;37.084;2023-07-31T03:24:32;7.90;;;4.80;;
72801;SDS011;61891;55.818;37.084;2023-07-31T03:26:58;7.22;;;4.68;;
72801;SDS011;61891;55.818;37.084;2023-07-31T03:29:23;6.55;;;4.13;;
72801;SDS011;61891;55.818;37.084;2023-07-31T03:31:49;8.88;;;4.43;;
72801;SDS011;61891;55.818;37.084;2023-07-31T03:34:15;6.47;;;3.63;;
72801;SDS011;61891;55.818;37.084;2023-07-31T03:36:40;6.07;;;3.80;;
72801;SDS011;61891;55.818;37.084;2023-07-31T03:39:06;9.98;;;4.05;;
72801;SDS011;61891;55.818;37.084;2023-07-31T03:41:32;7.68;;;4.63;;
72801;SDS011;61891;55.818;37.084;2023-07-31T03:43:58;11.48;;;4.88;;
72801;SDS011;61891;55.818;37.084;2023-07-31T03:46:24;7.05;;;4.50;;
72801;SDS011;61891;55.818;37.084;2023-07-31T03:48:50;10.57;;;4.18;;
72801;SDS011;61891;55.818;37.084;2023-07-31T03:51:16;7.47;;;4.07;;
72801;SDS011;61891;55.818;37.084;2023-07-31T03:53:43;7.65;;;4.80;;
72801;SDS011;61891;55.818;37.084;2023-07-31T03:56:10;10.45;;;3.95;;
72801;SDS011;61891;55.818;37.084;2023-07-31T03:58:35;8.52;;;4.00;;
72801;SDS011;61891;55.818;37.084;2023-07-31T04:01:02;6.65;;;3.92;;
72801;SDS011;61891;55.818;37.084;2023-07-31T04:03:29;8.20;;;3.78;;
72801;SDS011;61891;55.818;37.084;2023-07-31T04:05:55;9.93;;;4.07;;
72801;SDS011;61891;55.818;37.084;2023-07-31T04:10:50;6.50;;;3.35;;
72801;SDS011;61891;55.818;37.084;2023-07-31T04:13:16;7.28;;;3.60;;
72801;SDS011;61891;55.818;37.084;2023-07-31T04:15:42;8.38;;;4.10;;
72801;SDS011;61891;55.818;37.084;2023-07-31T04:18:08;9.45;;;4.35;;
72801;SDS011;61891;55.818;37.084;2023-07-31T04:20:33;9.75;;;4.30;;
72801;SDS011;61891;55.818;37.084;2023-07-31T04:22:59;5.40;;;3.80;;
72801;SDS011;61891;55.818;37.084;2023-07-31T04:25:25;5.25;;;3.67;;
72801;SDS011;61891;55.818;37.084;2023-07-31T04:27:51;6.25;;;3.97;;
72801;SDS011;61891;55.818;37.084;2023-07-31T04:30:17;6.18;;;3.80;;
72801;SDS011;61891;55.818;37.084;2023-07-31T04:32:43;6.80;;;3.38;;
72801;SDS011;61891;55.818;37.084;2023-07-31T04:35:08;9.25;;;3.70;;
72801;SDS011;61891;55.818;37.084;2023-07-31T04:37:34;5.70;;;2.72;;
72801;SDS011;61891;55.818;37.084;2023-07-31T04:40:00;8.40;;;3.10;;
72801;SDS011;61891;55.818;37.084;2023-07-31T04:42:26;5.63;;;2.97;;
72801;SDS011;61891;55.818;37.084;2023-07-31T04:44:51;6.85;;;3.15;;
72801;SDS011;61891;55.818;37.084;2023-07-31T04:47:18;9.38;;;3.20;;
72801;SDS011;61891;55.818;37.084;2023-07-31T04:49:45;7.65;;;3.00;;
72801;SDS011;61891;55.818;37.084;2023-07-31T04:52:10;4.05;;;2.60;;
72801;SDS011;61891;55.818;37.084;2023-07-31T04:54:36;2.97;;;2.08;;
72801;SDS011;61891;55.818;37.084;2023-07-31T04:57:02;5.28;;;3.05;;
72801;SDS011;61891;55.818;37.084;2023-07-31T04:59:28;2.85;;;2.35;;
72801;SDS011;61891;55.818;37.084;2023-07-31T05:01:53;3.25;;;2.10;;
72801;SDS011;61891;55.818;37.084;2023-07-31T05:04:19;3.17;;;1.85;;
72801;SDS011;61891;55.818;37.084;2023-07-31T05:06:45;2.40;;;1.90;;
72801;SDS011;61891;55.818;37.084;2023-07-31T05:09:11;2.90;;;2.10;;
72801;SDS011;61891;55.818;37.084;2023-07-31T05:11:37;3.92;;;2.13;;
72801;SDS011;61891;55.818;37.084;2023-07-31T05:14:03;3.47;;;2.00;;
72801;SDS011;61891;55.818;37.084;2023-07-31T05:16:31;2.83;;;1.83;;
72801;SDS011;61891;55.818;37.084;2023-07-31T05:18:56;3.00;;;2.10;;
72801;SDS011;61891;55.818;37.084;2023-07-31T05:21:22;4.20;;;2.10;;
72801;SDS011;61891;55.818;37.084;2023-07-31T05:23:49;3.80;;;2.10;;
72801;SDS011;61891;55.818;37.084;2023-07-31T05:26:15;3.20;;;2.20;;
72801;SDS011;61891;55.818;37.084;2023-07-31T05:31:06;2.58;;;2.33;;
72801;SDS011;61891;55.818;37.084;2023-07-31T05:33:32;3.25;;;1.58;;
72801;SDS011;61891;55.818;37.084;2023-07-31T05:38:24;6.13;;;1.67;;
72801;SDS011;61891;55.818;37.084;2023-07-31T05:43:15;2.10;;;1.90;;
72801;SDS011;61891;55.818;37.084;2023-07-31T05:48:07;2.92;;;1.90;;
72801;SDS011;61891;55.818;37.084;2023-07-31T05:52:59;3.17;;;1.55;;
72801;SDS011;61891;55.818;37.084;2023-07-31T05:57:53;2.80;;;1.75;;
72801;SDS011;61891;55.818;37.084;2023-07-31T06:00:19;1.40;;;1.30;;
72801;SDS011;61891;55.818;37.084;2023-07-31T06:02:46;3.65;;;1.80;;
72801;SDS011;61891;55.818;37.084;2023-07-31T06:05:12;4.40;;;1.42;;
72801;SDS011;61891;55.818;37.084;2023-07-31T06:10:04;2.38;;;1.50;;
72801;SDS011;61891;55.818;37.084;2023-07-31T06:12:32;2.08;;;1.70;;
72801;SDS011;61891;55.818;37.084;2023-07-31T06:14:58;4.88;;;1.95;;
72801;SDS011;61891;55.818;37.084;2023-07-31T06:19:51;4.75;;;2.00;;
72801;SDS011;61891;55.818;37.084;2023-07-31T06:22:17;3.05;;;1.48;;
72801;SDS011;61891;55.818;37.084;2023-07-31T06:24:43;1.52;;;1.25;;
72801;SDS011;61891;55.818;37.084;2023-07-31T06:27:10;3.28;;;1.73;;
72801;SDS011;61891;55.818;37.084;2023-07-31T06:29:36;3.00;;;1.30;;
72801;SDS011;61891;55.818;37.084;2023-07-31T06:34:28;2.20;;;1.60;;
72801;SDS011;61891;55.818;37.084;2023-07-31T06:36:58;3.33;;;1.63;;
72801;SDS011;61891;55.818;37.084;2023-07-31T06:39:24;1.45;;;1.35;;
72801;SDS011;61891;55.818;37.084;2023-07-31T06:41:50;2.10;;;1.55;;
72801;SDS011;61891;55.818;37.084;2023-07-31T06:44:15;2.22;;;1.52;;
72801;SDS011;61891;55.818;37.084;2023-07-31T06:46:42;3.25;;;1.80;;
72801;SDS011;61891;55.818;37.084;2023-07-31T06:49:08;3.25;;;1.70;;
72801;SDS011;61891;55.818;37.084;2023-07-31T06:51:35;2.30;;;1.50;;
72801;SDS011;61891;55.818;37.084;2023-07-31T06:54:02;2.17;;;1.70;;
72801;SDS011;61891;55.818;37.084;2023-07-31T06:56:28;10.73;;;7.15;;
72801;SDS011;61891;55.818;37.084;2023-07-31T06:58:55;1.95;;;1.30;;
72801;SDS011;61891;55.818;37.084;2023-07-31T07:01:22;2.13;;;1.40;;
72801;SDS011;61891;55.818;37.084;2023-07-31T07:03:48;2.30;;;1.60;;
72801;SDS011;61891;55.818;37.084;2023-07-31T07:06:17;3.28;;;1.35;;
72801;SDS011;61891;55.818;37.084;2023-07-31T07:08:43;2.08;;;1.50;;
72801;SDS011;61891;55.818;37.084;2023-07-31T07:11:09;2.28;;;1.42;;
72801;SDS011;61891;55.818;37.084;2023-07-31T07:13:35;2.03;;;1.35;;
72801;SDS011;61891;55.818;37.084;2023-07-31T07:16:00;2.08;;;1.40;;
72801;SDS011;61891;55.818;37.084;2023-07-31T07:18:26;2.53;;;1.35;;
72801;SDS011;61891;55.818;37.084;2023-07-31T07:20:52;3.35;;;1.67;;
72801;SDS011;61891;55.818;37.084;2023-07-31T07:23:19;4.57;;;1.50;;
72801;SDS011;61891;55.818;37.084;2023-07-31T07:25:46;2.20;;;1.60;;
72801;SDS011;61891;55.818;37.084;2023-07-31T07:28:13;3.15;;;1.77;;
72801;SDS011;61891;55.818;37.084;2023-07-31T07:30:39;2.25;;;1.60;;
72801;SDS011;61891;55.818;37.084;2023-07-31T07:33:05;2.22;;;1.60;;
72801;SDS011;61891;55.818;37.084;2023-07-31T07:35:34;1.73;;;1.52;;
72801;SDS011;61891;55.818;37.084;2023-07-31T07:38:04;2.47;;;1.50;;
72801;SDS011;61891;55.818;37.084;2023-07-31T07:40:29;1.95;;;1.52;;
72801;SDS011;61891;55.818;37.084;2023-07-31T07:42:55;2.88;;;1.85;;
72801;SDS011;61891;55.818;37.084;2023-07-31T07:45:21;2.15;;;1.90;;
72801;SDS011;61891;55.818;37.084;2023-07-31T07:47:47;2.85;;;1.60;;
72801;SDS011;61891;55.818;37.084;2023-07-31T07:50:13;3.15;;;1.58;;
72801;SDS011;61891;55.818;37.084;2023-07-31T07:52:38;2.65;;;1.60;;
72801;SDS011;61891;55.818;37.084;2023-07-31T07:55:04;2.60;;;1.70;;
72801;SDS011;61891;55.818;37.084;2023-07-31T07:57:30;1.77;;;1.67;;
72801;SDS011;61891;55.818;37.084;2023-07-31T07:59:56;2.25;;;1.65;;
72801;SDS011;61891;55.818;37.084;2023-07-31T08:02:22;1.90;;;1.52;;
72801;SDS011;61891;55.818;37.084;2023-07-31T08:04:48;2.25;;;1.50;;
72801;SDS011;61891;55.818;37.084;2023-07-31T08:07:14;2.20;;;1.65;;
72801;SDS011;61891;55.818;37.084;2023-07-31T08:09:40;3.10;;;1.73;;
72801;SDS011;61891;55.818;37.084;2023-07-31T08:12:06;2.50;;;1.80;;
72801;SDS011;61891;55.818;37.084;2023-07-31T08:14:32;1.90;;;1.60;;
72801;SDS011;61891;55.818;37.084;2023-07-31T08:16:58;1.70;;;1.60;;
72801;SDS011;61891;55.818;37.084;2023-07-31T08:19:24;3.30;;;1.73;;
72801;SDS011;61891;55.818;37.084;2023-07-31T08:21:50;2.75;;;1.50;;
72801;SDS011;61891;55.818;37.084;2023-07-31T08:24:16;2.75;;;1.80;;
72801;SDS011;61891;55.818;37.084;2023-07-31T08:26:42;2.65;;;1.52;;
72801;SDS011;61891;55.818;37.084;2023-07-31T08:29:07;2.08;;;1.60;;
72801;SDS011;61891;55.818;37.084;2023-07-31T08:31:33;2.08;;;1.65;;
72801;SDS011;61891;55.818;37.084;2023-07-31T08:34:00;2.00;;;1.60;;
72801;SDS011;61891;55.818;37.084;2023-07-31T08:36:27;2.08;;;1.77;;
72801;SDS011;61891;55.818;37.084;2023-07-31T08:38:53;1.95;;;1.75;;
72801;SDS011;61891;55.818;37.084;2023-07-31T08:41:18;3.10;;;2.00;;
72801;SDS011;61891;55.818;37.084;2023-07-31T08:43:45;2.08;;;1.73;;
72801;SDS011;61891;55.818;37.084;2023-07-31T08:46:12;1.88;;;1.60;;
72801;SDS011;61891;55.818;37.084;2023-07-31T08:48:41;2.38;;;1.40;;
72801;SDS011;61891;55.818;37.084;2023-07-31T08:51:08;1.70;;;1.60;;
72801;SDS011;61891;55.818;37.084;2023-07-31T08:53:34;2.92;;;1.63;;
72801;SDS011;61891;55.818;37.084;2023-07-31T08:56:00;2.85;;;1.83;;
72801;SDS011;61891;55.818;37.084;2023-07-31T08:58:32;2.15;;;1.80;;
72801;SDS011;61891;55.818;37.084;2023-07-31T09:01:04;2.47;;;1.83;;
72801;SDS011;61891;55.818;37.084;2023-07-31T09:03:33;3.80;;;2.08;;
72801;SDS011;61891;55.818;37.084;2023-07-31T09:06:01;2.58;;;2.03;;
72801;SDS011;61891;55.818;37.084;2023-07-31T09:08:30;3.38;;;1.80;;
72801;SDS011;61891;55.818;37.084;2023-07-31T09:11:01;3.58;;;1.90;;
72801;SDS011;61891;55.818;37.084;2023-07-31T09:13:31;1.92;;;1.60;;
72801;SDS011;61891;55.818;37.084;2023-07-31T09:15:58;2.13;;;1.70;;
72801;SDS011;61891;55.818;37.084;2023-07-31T09:18:24;2.03;;;1.70;;
72801;SDS011;61891;55.818;37.084;2023-07-31T09:23:39;3.00;;;1.77;;
72801;SDS011;61891;55.818;37.084;2023-07-31T09:26:06;2.83;;;1.80;;
72801;SDS011;61891;55.818;37.084;2023-07-31T09:28:32;1.65;;;1.50;;
72801;SDS011;61891;55.818;37.084;2023-07-31T09:30:57;2.33;;;1.63;;
72801;SDS011;61891;55.818;37.084;2023-07-31T09:33:23;1.70;;;1.60;;
72801;SDS011;61891;55.818;37.084;2023-07-31T09:35:49;1.92;;;1.60;;
72801;SDS011;61891;55.818;37.084;2023-07-31T09:38:15;7.35;;;2.78;;
72801;SDS011;61891;55.818;37.084;2023-07-31T09:40:43;3.72;;;2.08;;
72801;SDS011;61891;55.818;37.084;2023-07-31T09:43:12;4.32;;;1.60;;
72801;SDS011;61891;55.818;37.084;2023-07-31T09:45:40;2.47;;;1.92;;
72801;SDS011;61891;55.818;37.084;2023-07-31T09:48:08;3.80;;;2.15;;
72801;SDS011;61891;55.818;37.084;2023-07-31T09:50:45;3.28;;;2.15;;
72801;SDS011;61891;55.818;37.084;2023-07-31T09:53:13;4.35;;;2.35;;
72801;SDS011;61891;55.818;37.084;2023-07-31T09:55:40;4.88;;;2.50;;
72801;SDS011;61891;55.818;37.084;2023-07-31T09:58:09;4.95;;;1.98;;
72801;SDS011;61891;55.818;37.084;2023-07-31T10:00:36;3.03;;;1.90;;
72801;SDS011;61891;55.818;37.084;2023-07-31T10:03:07;3.55;;;1.90;;
72801;SDS011;61891;55.818;37.084;2023-07-31T10:05:35;3.63;;;1.70;;
72801;SDS011;61891;55.818;37.084;2023-07-31T10:08:01;2.38;;;1.90;;
72801;SDS011;61891;55.818;37.084;2023-07-31T10:10:29;2.88;;;1.90;;
72801;SDS011;61891;55.818;37.084;2023-07-31T10:12:56;3.70;;;1.70;;
72801;SDS011;61891;55.818;37.084;2023-07-31T10:15:23;3.60;;;1.77;;
72801;SDS011;61891;55.818;37.084;2023-07-31T10:17:49;3.95;;;1.80;;
72801;SDS011;61891;55.818;37.084;2023-07-31T10:20:16;2.75;;;1.83;;
72801;SDS011;61891;55.818;37.084;2023-07-31T10:22:43;2.22;;;1.90;;
72801;SDS011;61891;55.818;37.084;2023-07-31T10:25:11;2.88;;;2.08;;
72801;SDS011;61891;55.818;37.084;2023-07-31T10:27:38;4.70;;;2.20;;
72801;SDS011;61891;55.818;37.084;2023-07-31T10:30:05;7.13;;;2.28;;
72801;SDS011;61891;55.818;37.084;2023-07-31T10:32:34;3.95;;;2.45;;
72801;SDS011;61891;55.818;37.084;2023-07-31T10:35:01;3.70;;;2.40;;
72801;SDS011;61891;55.818;37.084;2023-07-31T10:37:31;4.22;;;2.80;;
72801;SDS011;61891;55.818;37.084;2023-07-31T10:40:03;6.40;;;2.30;;
72801;SDS011;61891;55.818;37.084;2023-07-31T10:42:36;5.05;;;1.90;;
72801;SDS011;61891;55.818;37.084;2023-07-31T10:47:31;7.35;;;3.08;;
72801;SDS011;61891;55.818;37.084;2023-07-31T10:52:58;4.93;;;2.60;;
72801;SDS011;61891;55.818;37.084;2023-07-31T10:58:10;5.35;;;2.88;;
72801;SDS011;61891;55.818;37.084;2023-07-31T11:00:47;3.40;;;2.15;;
72801;SDS011;61891;55.818;37.084;2023-07-31T11:03:14;3.83;;;2.13;;
72801;SDS011;61891;55.818;37.084;2023-07-31T11:05:48;6.75;;;2.78;;
72801;SDS011;61891;55.818;37.084;2023-07-31T11:13:30;4.35;;;2.50;;
72801;SDS011;61891;55.818;37.084;2023-07-31T11:16:06;3.47;;;2.40;;
72801;SDS011;61891;55.818;37.084;2023-07-31T11:18:32;5.75;;;2.85;;
72801;SDS011;61891;55.818;37.084;2023-07-31T11:20:58;2.63;;;2.42;;
72801;SDS011;61891;55.818;37.084;2023-07-31T11:23:24;4.95;;;2.45;;
72801;SDS011;61891;55.818;37.084;2023-07-31T11:25:50;3.78;;;2.15;;
72801;SDS011;61891;55.818;37.084;2023-07-31T11:28:17;4.75;;;2.50;;
72801;SDS011;61891;55.818;37.084;2023-07-31T11:30:45;3.35;;;2.17;;
72801;SDS011;61891;55.818;37.084;2023-07-31T11:33:13;3.70;;;2.70;;
72801;SDS011;61891;55.818;37.084;2023-07-31T11:38:29;3.92;;;2.67;;
72801;SDS011;61891;55.818;37.084;2023-07-31T11:40:57;2.75;;;2.30;;
72801;SDS011;61891;55.818;37.084;2023-07-31T11:43:25;4.15;;;2.35;;
72801;SDS011;61891;55.818;37.084;2023-07-31T11:45:53;3.55;;;2.08;;
72801;SDS011;61891;55.818;37.084;2023-07-31T11:48:29;2.92;;;2.28;;
72801;SDS011;61891;55.818;37.084;2023-07-31T11:51:00;3.17;;;2.40;;
72801;SDS011;61891;55.818;37.084;2023-07-31T11:56:21;3.30;;;1.98;;
72801;SDS011;61891;55.818;37.084;2023-07-31T11:58:49;2.15;;;1.98;;
72801;SDS011;61891;55.818;37.084;2023-07-31T12:01:20;2.83;;;1.90;;
72801;SDS011;61891;55.818;37.084;2023-07-31T12:03:48;4.47;;;2.05;;
72801;SDS011;61891;55.818;37.084;2023-07-31T12:06:17;6.38;;;2.40;;
72801;SDS011;61891;55.818;37.084;2023-07-31T12:08:44;3.33;;;1.98;;
72801;SDS011;61891;55.818;37.084;2023-07-31T12:11:10;3.38;;;2.28;;
72801;SDS011;61891;55.818;37.084;2023-07-31T12:13:36;4.40;;;2.15;;
72801;SDS011;61891;55.818;37.084;2023-07-31T12:16:02;3.10;;;1.98;;
72801;SDS011;61891;55.818;37.084;2023-07-31T12:18:30;5.15;;;2.15;;
72801;SDS011;61891;55.818;37.084;2023-07-31T12:21:00;5.40;;;2.00;;
72801;SDS011;61891;55.818;37.084;2023-07-31T12:23:28;10.18;;;2.60;;
72801;SDS011;61891;55.818;37.084;2023-07-31T12:25:59;4.18;;;2.20;;
72801;SDS011;61891;55.818;37.084;2023-07-31T12:28:27;6.32;;;2.28;;
72801;SDS011;61891;55.818;37.084;2023-07-31T12:30:56;8.50;;;2.40;;
72801;SDS011;61891;55.818;37.084;2023-07-31T12:33:27;9.07;;;3.47;;
72801;SDS011;61891;55.818;37.084;2023-07-31T12:35:56;7.45;;;2.88;;
72801;SDS011;61891;55.818;37.084;2023-07-31T12:38:22;6.35;;;2.50;;
72801;SDS011;61891;55.818;37.084;2023-07-31T12:40:48;3.67;;;2.60;;
72801;SDS011;61891;55.818;37.084;2023-07-31T12:43:14;9.50;;;3.10;;
72801;SDS011;61891;55.818;37.084;2023-07-31T12:45:40;5.60;;;2.80;;
72801;SDS011;61891;55.818;37.084;2023-07-31T12:48:05;5.65;;;2.40;;
72801;SDS011;61891;55.818;37.084;2023-07-31T12:50:31;3.22;;;2.13;;
72801;SDS011;61891;55.818;37.084;2023-07-31T12:52:57;3.83;;;2.38;;
72801;SDS011;61891;55.818;37.084;2023-07-31T12:55:23;4.68;;;2.20;;
72801;SDS011;61891;55.818;37.084;2023-07-31T12:57:49;5.45;;;2.60;;
72801;SDS011;61891;55.818;37.084;2023-07-31T13:00:16;5.85;;;2.65;;
72801;SDS011;61891;55.818;37.084;2023-07-31T13:02:42;6.65;;;3.00;;
72801;SDS011;61891;55.818;37.084;2023-07-31T13:05:08;6.57;;;2.83;;
72801;SDS011;61891;55.818;37.084;2023-07-31T13:07:34;8.18;;;2.80;;
72801;SDS011;61891;55.818;37.084;2023-07-31T13:10:00;5.60;;;2.80;;
72801;SDS011;61891;55.818;37.084;2023-07-31T13:14:51;9.73;;;2.80;;
72801;SDS011;61891;55.818;37.084;2023-07-31T13:19:43;7.47;;;2.58;;
72801;SDS011;61891;55.818;37.084;2023-07-31T13:22:08;4.60;;;2.38;;
72801;SDS011;61891;55.818;37.084;2023-07-31T13:24:34;8.00;;;2.90;;
72801;SDS011;61891;55.818;37.084;2023-07-31T13:27:00;5.15;;;2.53;;
72801;SDS011;61891;55.818;37.084;2023-07-31T13:29:26;11.18;;;3.42;;
72801;SDS011;61891;55.818;37.084;2023-07-31T13:31:52;6.15;;;2.55;;
72801;SDS011;61891;55.818;37.084;2023-07-31T13:34:18;5.93;;;2.65;;
72801;SDS011;61891;55.818;37.084;2023-07-31T13:36:44;4.43;;;2.40;;
72801;SDS011;61891;55.818;37.084;2023-07-31T13:39:10;7.95;;;3.28;;
72801;SDS011;61891;55.818;37.084;2023-07-31T13:41:35;4.05;;;2.50;;
72801;SDS011;61891;55.818;37.084;2023-07-31T13:44:01;6.50;;;3.05;;
72801;SDS011;61891;55.818;37.084;2023-07-31T13:46:27;10.88;;;3.40;;
72801;SDS011;61891;55.818;37.084;2023-07-31T13:48:53;5.18;;;3.10;;
72801;SDS011;61891;55.818;37.084;2023-07-31T13:51:21;4.68;;;2.63;;
72801;SDS011;61891;55.818;37.084;2023-07-31T13:53:47;4.55;;;2.63;;
72801;SDS011;61891;55.818;37.084;2023-07-31T13:56:13;3.88;;;2.50;;
72801;SDS011;61891;55.818;37.084;2023-07-31T13:58:39;7.97;;;2.83;;
72801;SDS011;61891;55.818;37.084;2023-07-31T14:01:05;7.38;;;2.95;;
72801;SDS011;61891;55.818;37.084;2023-07-31T14:03:31;7.88;;;3.33;;
72801;SDS011;61891;55.818;37.084;2023-07-31T14:05:57;4.75;;;2.72;;
72801;SDS011;61891;55.818;37.084;2023-07-31T14:08:22;8.93;;;3.30;;
72801;SDS011;61891;55.818;37.084;2023-07-31T14:10:48;16.50;;;5.80;;
72801;SDS011;61891;55.818;37.084;2023-07-31T14:13:14;10.05;;;4.50;;
72801;SDS011;61891;55.818;37.084;2023-07-31T14:15:43;3.97;;;2.90;;
72801;SDS011;61891;55.818;37.084;2023-07-31T14:18:09;3.35;;;2.30;;
72801;SDS011;61891;55.818;37.084;2023-07-31T14:20:35;6.18;;;2.58;;
72801;SDS011;61891;55.818;37.084;2023-07-31T14:23:02;5.53;;;3.22;;
72801;SDS011;61891;55.818;37.084;2023-07-31T14:25:28;6.80;;;2.75;;
72801;SDS011;61891;55.818;37.084;2023-07-31T14:27:54;3.92;;;2.80;;
72801;SDS011;61891;55.818;37.084;2023-07-31T14:30:19;4.50;;;2.80;;
72801;SDS011;61891;55.818;37.084;2023-07-31T14:32:46;5.20;;;2.90;;
72801;SDS011;61891;55.818;37.084;2023-07-31T14:35:12;7.93;;;3.80;;
72801;SDS011;61891;55.818;37.084;2023-07-31T14:37:42;8.95;;;3.28;;
72801;SDS011;61891;55.818;37.084;2023-07-31T14:40:09;5.30;;;2.78;;
72801;SDS011;61891;55.818;37.084;2023-07-31T14:42:36;5.80;;;2.85;;
72801;SDS011;61891;55.818;37.084;2023-07-31T14:45:03;3.00;;;2.20;;
72801;SDS011;61891;55.818;37.084;2023-07-31T14:47:31;4.38;;;2.35;;
72801;SDS011;61891;55.818;37.084;2023-07-31T14:49:58;3.67;;;2.40;;
72801;SDS011;61891;55.818;37.084;2023-07-31T14:52:24;6.00;;;2.67;;
72801;SDS011;61891;55.818;37.084;2023-07-31T14:54:51;5.07;;;2.47;;
72801;SDS011;61891;55.818;37.084;2023-07-31T14:57:17;5.78;;;2.58;;
72801;SDS011;61891;55.818;37.084;2023-07-31T14:59:42;4.97;;;2.80;;
72801;SDS011;61891;55.818;37.084;2023-07-31T15:02:08;4.00;;;2.40;;
72801;SDS011;61891;55.818;37.084;2023-07-31T15:04:35;2.83;;;2.10;;
72801;SDS011;61891;55.818;37.084;2023-07-31T15:07:01;3.38;;;2.10;;
72801;SDS011;61891;55.818;37.084;2023-07-31T15:09:27;3.03;;;1.90;;
72801;SDS011;61891;55.818;37.084;2023-07-31T15:11:53;3.90;;;2.13;;
72801;SDS011;61891;55.818;37.084;2023-07-31T15:14:21;4.15;;;2.17;;
72801;SDS011;61891;55.818;37.084;2023-07-31T15:16:47;6.15;;;2.50;;
72801;SDS011;61891;55.818;37.084;2023-07-31T15:19:14;3.85;;;2.28;;
72801;SDS011;61891;55.818;37.084;2023-07-31T15:21:40;4.18;;;2.53;;
72801;SDS011;61891;55.818;37.084;2023-07-31T15:24:06;3.83;;;2.58;;
72801;SDS011;61891;55.818;37.084;2023-07-31T15:26:32;4.85;;;2.60;;
72801;SDS011;61891;55.818;37.084;2023-07-31T15:29:01;5.15;;;2.55;;
72801;SDS011;61891;55.818;37.084;2023-07-31T15:31:39;3.67;;;2.50;;
72801;SDS011;61891;55.818;37.084;2023-07-31T15:34:05;4.30;;;2.85;;
72801;SDS011;61891;55.818;37.084;2023-07-31T15:36:31;4.25;;;2.47;;
72801;SDS011;61891;55.818;37.084;2023-07-31T15:38:57;4.50;;;2.63;;